createdAt,value
2017-10-28T00:01:26.988Z,8.40
2017-10-28T00:03:54.559Z,8.40
2017-10-28T00:06:22.048Z,8.30
2017-10-28T00:08:49.504Z,8.40
2017-10-28T00:11:16.992Z,8.40
2017-10-28T00:13:44.444Z,8.40
2017-10-28T00:16:11.916Z,8.30
2017-10-28T00:18:39.384Z,8.30
2017-10-28T00:21:06.851Z,8.30
2017-10-28T00:23:34.331Z,8.30
2017-10-28T00:26:02.591Z,8.30
2017-10-28T00:28:30.065Z,8.30
2017-10-28T00:31:03.882Z,8.30
2017-10-28T00:33:40.884Z,8.20
2017-10-28T00:36:14.180Z,8.20
2017-10-28T00:38:41.657Z,8.20
2017-10-28T00:41:09.139Z,8.20
2017-10-28T00:43:37.403Z,8.10
2017-10-28T00:46:04.878Z,8.10
2017-10-28T00:48:32.370Z,8.10
2017-10-28T00:50:59.836Z,8.00
2017-10-28T00:53:27.337Z,7.90
2017-10-28T00:55:54.818Z,7.90
2017-10-28T00:58:23.089Z,8.00
2017-10-28T01:00:50.568Z,7.90
2017-10-28T01:03:18.821Z,7.90
2017-10-28T01:05:46.303Z,7.90
2017-10-28T01:08:14.556Z,7.90
2017-10-28T01:10:42.035Z,7.90
2017-10-28T01:13:10.281Z,7.90
2017-10-28T01:15:37.761Z,7.90
2017-10-28T01:18:06.013Z,7.90
2017-10-28T01:20:33.494Z,7.90
2017-10-28T01:23:01.750Z,7.80
2017-10-28T01:25:29.226Z,7.80
2017-10-28T01:27:57.494Z,7.90
2017-10-28T01:30:24.970Z,7.90
2017-10-28T01:32:53.212Z,7.80
2017-10-28T01:35:20.690Z,7.80
2017-10-28T01:37:48.256Z,7.70
2017-10-28T01:40:16.524Z,7.80
2017-10-28T01:42:51.169Z,7.80
2017-10-28T01:45:19.420Z,7.80
2017-10-28T01:47:47.508Z,7.70
2017-10-28T01:50:15.741Z,7.80
2017-10-28T01:52:43.216Z,7.80
2017-10-28T01:55:10.705Z,7.80
2017-10-28T01:57:38.971Z,7.80
2017-10-28T02:00:07.206Z,7.90
2017-10-28T02:02:34.809Z,7.90
2017-10-28T02:05:16.144Z,7.80
2017-10-28T02:07:43.652Z,7.80
2017-10-28T02:10:11.893Z,7.90
2017-10-28T02:12:39.401Z,7.80
2017-10-28T02:15:06.905Z,7.90
2017-10-28T02:17:34.388Z,7.90
2017-10-28T02:20:01.857Z,7.80
2017-10-28T02:22:30.113Z,7.80
2017-10-28T02:24:57.597Z,7.70
2017-10-28T02:27:25.828Z,7.90
2017-10-28T02:29:53.325Z,7.90
2017-10-28T02:32:21.565Z,7.80
2017-10-28T02:34:49.058Z,7.80
2017-10-28T02:37:17.306Z,7.80
2017-10-28T02:39:44.789Z,7.70
2017-10-28T02:42:13.040Z,7.80
2017-10-28T02:44:40.526Z,7.80
2017-10-28T02:47:08.769Z,7.80
2017-10-28T02:49:36.262Z,7.80
2017-10-28T02:52:04.501Z,7.80
2017-10-28T02:54:31.987Z,7.80
2017-10-28T02:57:00.242Z,7.90
2017-10-28T02:59:27.750Z,7.90
2017-10-28T03:01:55.214Z,7.90
2017-10-28T03:04:22.686Z,7.90
2017-10-28T03:06:50.164Z,7.90
2017-10-28T03:09:18.460Z,7.90
2017-10-28T03:11:45.958Z,7.90
2017-10-28T03:14:13.425Z,7.90
2017-10-28T03:16:40.948Z,7.90
2017-10-28T03:19:09.259Z,7.80
2017-10-28T03:21:36.769Z,7.80
2017-10-28T03:24:04.237Z,7.80
2017-10-28T03:26:31.713Z,7.80
2017-10-28T03:28:59.187Z,7.70
2017-10-28T03:31:26.675Z,7.70
2017-10-28T03:33:54.144Z,7.70
2017-10-28T03:36:21.637Z,7.60
2017-10-28T03:38:49.884Z,7.60
2017-10-28T03:41:17.388Z,7.60
2017-10-28T03:43:44.869Z,7.50
2017-10-28T03:46:12.396Z,7.50
2017-10-28T03:48:40.634Z,7.50
2017-10-28T03:51:08.118Z,7.50
2017-10-28T03:53:36.361Z,7.60
2017-10-28T03:56:03.878Z,7.60
2017-10-28T03:58:31.356Z,7.60
2017-10-28T04:00:58.827Z,7.70
2017-10-28T04:03:26.316Z,7.70
2017-10-28T04:05:53.792Z,7.60
2017-10-28T04:08:22.065Z,7.50
2017-10-28T04:10:50.305Z,7.50
2017-10-28T04:13:17.800Z,7.50
2017-10-28T04:15:46.052Z,7.40
2017-10-28T04:18:13.549Z,7.40
2017-10-28T04:20:41.014Z,7.40
2017-10-28T04:23:09.264Z,7.40
2017-10-28T04:25:37.501Z,7.20
2017-10-28T04:28:05.753Z,7.20
2017-10-28T04:30:33.217Z,7.30
2017-10-28T04:33:00.708Z,7.30
2017-10-28T04:35:28.192Z,7.30
2017-10-28T04:37:56.458Z,7.40
2017-10-28T04:40:24.692Z,7.50
2017-10-28T04:42:52.181Z,7.50
2017-10-28T04:45:20.417Z,7.50
2017-10-28T04:47:47.893Z,7.40
2017-10-28T04:50:15.364Z,7.40
2017-10-28T04:52:42.836Z,7.30
2017-10-28T04:55:11.074Z,7.50
2017-10-28T04:57:38.572Z,7.50
2017-10-28T05:00:06.822Z,7.30
2017-10-28T05:02:34.405Z,7.30
2017-10-28T05:05:01.874Z,7.20
2017-10-28T05:07:30.125Z,7.20
2017-10-28T05:09:58.373Z,7.40
2017-10-28T05:12:25.851Z,7.40
2017-10-28T05:14:53.349Z,7.40
2017-10-28T05:17:21.592Z,7.40
2017-10-28T05:19:49.077Z,7.40
2017-10-28T05:22:17.315Z,7.50
2017-10-28T05:24:44.808Z,7.50
2017-10-28T05:27:13.049Z,7.50
2017-10-28T05:29:40.527Z,7.50
2017-10-28T05:32:08.006Z,7.40
2017-10-28T05:34:36.253Z,7.30
2017-10-28T05:37:03.732Z,7.30
2017-10-28T05:39:32.002Z,7.30
2017-10-28T05:42:00.257Z,7.30
2017-10-28T05:44:29.248Z,7.30
2017-10-28T05:46:56.717Z,7.20
2017-10-28T05:49:24.225Z,7.30
2017-10-28T05:51:51.710Z,7.30
2017-10-28T05:54:20.418Z,7.30
2017-10-28T05:56:47.890Z,7.30
2017-10-28T05:59:16.128Z,7.40
2017-10-28T06:01:43.628Z,7.40
2017-10-28T06:04:11.873Z,7.40
2017-10-28T06:06:39.363Z,7.30
2017-10-28T06:09:07.628Z,7.50
2017-10-28T06:11:35.106Z,7.50
2017-10-28T06:14:03.357Z,7.40
2017-10-28T06:16:30.854Z,7.40
2017-10-28T06:18:58.342Z,7.40
2017-10-28T06:21:25.853Z,7.40
2017-10-28T06:23:54.104Z,7.40
2017-10-28T06:26:21.591Z,7.30
2017-10-28T06:28:49.092Z,7.40
2017-10-28T06:31:16.574Z,7.50
2017-10-28T06:33:44.055Z,7.60
2017-10-28T06:36:12.311Z,7.50
2017-10-28T06:38:39.785Z,7.40
2017-10-28T06:41:08.040Z,7.50
2017-10-28T06:43:36.278Z,7.50
2017-10-28T06:46:03.777Z,7.50
2017-10-28T06:48:31.258Z,7.50
2017-10-28T06:50:59.516Z,7.60
2017-10-28T06:53:26.984Z,7.60
2017-10-28T06:55:55.242Z,7.60
2017-10-28T06:58:23.475Z,7.50
2017-10-28T07:00:50.952Z,7.50
2017-10-28T07:03:18.417Z,7.40
2017-10-28T07:05:45.901Z,7.50
2017-10-28T07:08:14.151Z,7.70
2017-10-28T07:10:41.625Z,7.70
2017-10-28T07:13:09.108Z,7.70
2017-10-28T07:15:37.363Z,7.90
2017-10-28T07:18:04.849Z,7.80
2017-10-28T07:20:32.329Z,7.70
2017-10-28T07:22:59.825Z,7.80
2017-10-28T07:25:27.300Z,7.70
2017-10-28T07:27:54.796Z,7.80
2017-10-28T07:30:22.287Z,7.80
2017-10-28T07:32:49.773Z,7.70
2017-10-28T07:35:17.451Z,7.70
2017-10-28T07:40:36.458Z,7.80
2017-10-28T07:43:03.925Z,7.70
2017-10-28T07:45:31.392Z,7.70
2017-10-28T07:47:58.953Z,8.00
2017-10-28T07:50:26.429Z,8.00
2017-10-28T07:52:53.908Z,8.10
2017-10-28T07:55:22.152Z,8.50
2017-10-28T07:57:49.644Z,8.50
2017-10-28T08:00:17.886Z,8.80
2017-10-28T08:02:45.372Z,8.70
2017-10-28T08:05:13.765Z,9.00
2017-10-28T08:07:42.020Z,9.40
2017-10-28T08:10:09.514Z,9.40
2017-10-28T08:12:37.010Z,9.60
2017-10-28T08:15:04.488Z,9.60
2017-10-28T08:17:32.061Z,9.50
2017-10-28T08:19:59.528Z,9.50
2017-10-28T08:22:27.801Z,9.50
2017-10-28T08:24:56.048Z,9.50
2017-10-28T08:27:23.545Z,9.60
2017-10-28T08:29:51.788Z,9.50
2017-10-28T08:32:20.773Z,9.50
2017-10-28T08:34:48.231Z,9.50
2017-10-28T08:37:15.818Z,9.50
2017-10-28T08:39:44.084Z,9.50
2017-10-28T08:42:11.597Z,9.50
2017-10-28T08:44:39.072Z,9.50
2017-10-28T08:47:06.553Z,9.40
2017-10-28T08:49:34.048Z,9.50
2017-10-28T08:52:01.725Z,9.50
2017-10-28T08:54:29.219Z,9.60
2017-10-28T08:56:56.688Z,9.50
2017-10-28T08:59:24.168Z,9.50
2017-10-28T09:01:52.405Z,9.70
2017-10-28T09:04:19.892Z,9.60
2017-10-28T09:06:47.369Z,9.50
2017-10-28T09:09:15.617Z,9.60
2017-10-28T09:11:44.623Z,9.60
2017-10-28T09:14:12.865Z,9.70
2017-10-28T09:16:40.571Z,9.70
2017-10-28T09:19:08.829Z,9.70
2017-10-28T09:21:36.327Z,9.70
2017-10-28T09:24:03.819Z,9.70
2017-10-28T09:26:37.372Z,9.70
2017-10-28T09:29:05.623Z,9.80
2017-10-28T09:31:33.117Z,9.80
2017-10-28T09:34:00.600Z,9.80
2017-10-28T09:36:28.065Z,10.00
2017-10-28T09:38:55.541Z,10.10
2017-10-28T09:41:23.017Z,10.00
2017-10-28T09:43:50.498Z,10.00
2017-10-28T09:46:18.073Z,10.00
2017-10-28T09:48:45.563Z,10.00
2017-10-28T09:51:13.040Z,10.00
2017-10-28T09:53:40.519Z,10.10
2017-10-28T09:56:08.765Z,10.10
2017-10-28T09:58:36.239Z,10.10
2017-10-28T10:01:03.723Z,10.10
2017-10-28T10:03:31.195Z,10.20
2017-10-28T10:05:58.680Z,10.20
2017-10-28T10:08:26.154Z,10.40
2017-10-28T10:10:54.412Z,10.60
2017-10-28T10:13:21.881Z,10.60
2017-10-28T10:15:49.368Z,10.70
2017-10-28T10:18:16.853Z,10.70
2017-10-28T10:20:44.339Z,10.80
2017-10-28T10:23:11.822Z,10.70
2017-10-28T10:25:40.808Z,10.60
2017-10-28T10:28:08.287Z,10.60
2017-10-28T10:30:35.760Z,10.70
2017-10-28T10:33:04.015Z,10.60
2017-10-28T10:35:31.501Z,10.60
2017-10-28T10:37:59.751Z,10.50
2017-10-28T10:40:27.237Z,10.50
2017-10-28T10:42:54.732Z,10.50
2017-10-28T10:45:22.208Z,10.50
2017-10-28T10:47:49.701Z,10.50
2017-10-28T10:50:17.928Z,10.50
2017-10-28T10:52:45.412Z,10.50
2017-10-28T10:55:12.880Z,10.50
2017-10-28T10:57:41.168Z,10.40
2017-10-28T11:00:09.407Z,10.50
2017-10-28T11:02:36.896Z,10.50
2017-10-28T11:05:05.176Z,10.50
2017-10-28T11:07:33.430Z,10.50
2017-10-28T11:10:00.902Z,10.50
2017-10-28T11:12:29.160Z,10.40
2017-10-28T11:14:59.152Z,10.40
2017-10-28T11:17:26.644Z,10.40
2017-10-28T11:19:54.149Z,10.50
2017-10-28T11:22:21.664Z,10.40
2017-10-28T11:24:49.133Z,10.50
2017-10-28T11:27:17.401Z,10.50
2017-10-28T11:29:44.889Z,10.50
2017-10-28T11:32:12.374Z,10.60
2017-10-28T11:34:40.787Z,10.60
2017-10-28T11:37:08.295Z,10.60
2017-10-28T11:39:35.788Z,10.60
2017-10-28T11:42:03.279Z,10.60
2017-10-28T11:44:31.515Z,10.60
2017-10-28T11:46:59.025Z,10.60
2017-10-28T11:49:27.267Z,10.60
2017-10-28T11:51:54.764Z,10.60
2017-10-28T11:54:22.224Z,10.50
2017-10-28T11:56:50.628Z,10.60
2017-10-28T11:59:18.105Z,10.60
2017-10-28T12:01:45.589Z,10.50
2017-10-28T12:04:13.073Z,10.50
2017-10-28T12:06:40.558Z,10.50
2017-10-28T12:09:08.045Z,10.30
2017-10-28T12:11:35.633Z,10.40
2017-10-28T12:14:03.899Z,10.30
2017-10-28T12:16:31.374Z,10.30
2017-10-28T12:19:00.594Z,10.30
2017-10-28T12:21:28.073Z,10.30
2017-10-28T12:23:55.552Z,10.30
2017-10-28T12:26:23.026Z,10.20
2017-10-28T12:28:50.527Z,10.20
2017-10-28T12:31:18.005Z,10.20
2017-10-28T12:33:45.503Z,10.20
2017-10-28T12:36:13.744Z,10.20
2017-10-28T12:38:41.248Z,10.20
2017-10-28T12:41:09.500Z,10.30
2017-10-28T12:43:36.980Z,10.30
2017-10-28T12:46:05.212Z,10.10
2017-10-28T12:48:32.717Z,10.10
2017-10-28T12:51:00.963Z,10.30
2017-10-28T12:53:28.433Z,10.30
2017-10-28T12:55:55.910Z,10.20
2017-10-28T12:58:24.161Z,10.20
2017-10-28T13:00:51.635Z,10.20
2017-10-28T13:03:19.885Z,10.20
2017-10-28T13:05:47.378Z,10.20
2017-10-28T13:08:15.612Z,10.30
2017-10-28T13:10:43.095Z,10.20
2017-10-28T13:13:10.567Z,10.30
2017-10-28T13:15:38.064Z,10.20
2017-10-28T13:18:05.537Z,10.30
2017-10-28T13:20:33.018Z,10.10
2017-10-28T13:23:00.483Z,10.00
2017-10-28T13:25:28.586Z,10.00
2017-10-28T13:27:56.061Z,10.00
2017-10-28T13:30:23.540Z,10.00
2017-10-28T13:32:51.856Z,10.00
2017-10-28T13:35:20.100Z,10.10
2017-10-28T13:37:47.619Z,10.10
2017-10-28T13:40:15.147Z,10.10
2017-10-28T13:42:43.379Z,10.30
2017-10-28T13:45:10.845Z,10.20
2017-10-28T13:47:38.325Z,10.30
2017-10-28T13:50:05.810Z,10.30
2017-10-28T13:52:34.056Z,10.10
2017-10-28T13:55:03.065Z,10.10
2017-10-28T13:57:31.310Z,9.90
2017-10-28T13:59:58.889Z,9.90
2017-10-28T14:02:27.119Z,9.80
2017-10-28T14:04:54.585Z,9.80
2017-10-28T14:07:22.075Z,9.80
2017-10-28T14:09:49.561Z,9.70
2017-10-28T14:12:17.822Z,9.70
2017-10-28T14:14:45.290Z,9.70
2017-10-28T14:17:13.546Z,9.80
2017-10-28T14:19:41.026Z,9.80
2017-10-28T14:22:09.301Z,9.70
2017-10-28T14:24:37.542Z,9.70
2017-10-28T14:27:05.025Z,9.70
2017-10-28T14:29:33.273Z,9.70
2017-10-28T14:32:00.743Z,9.70
2017-10-28T14:34:28.214Z,9.70
2017-10-28T14:36:56.465Z,9.60
2017-10-28T14:39:23.938Z,9.50
2017-10-28T14:41:51.432Z,9.50
2017-10-28T14:44:18.900Z,9.50
2017-10-28T14:46:46.360Z,9.40
2017-10-28T14:49:13.841Z,9.40
2017-10-28T14:51:41.312Z,9.50
2017-10-28T14:54:08.812Z,9.50
2017-10-28T14:56:37.041Z,9.40
2017-10-28T14:59:04.531Z,9.40
2017-10-28T15:01:32.765Z,9.40
2017-10-28T15:04:00.254Z,9.40
2017-10-28T15:06:27.747Z,9.30
2017-10-28T15:08:55.219Z,9.30
2017-10-28T15:11:22.685Z,9.30
2017-10-28T15:13:50.181Z,9.20
2017-10-28T15:16:17.668Z,9.40
2017-10-28T15:18:45.917Z,9.40
2017-10-28T15:21:13.385Z,9.40
2017-10-28T15:23:41.645Z,9.40
2017-10-28T15:26:09.878Z,9.50
2017-10-28T15:28:37.353Z,9.40
2017-10-28T15:31:04.827Z,9.40
2017-10-28T15:33:32.319Z,9.50
2017-10-28T15:36:00.562Z,9.30
2017-10-28T15:38:28.068Z,9.30
2017-10-28T15:40:55.545Z,9.30
2017-10-28T15:43:23.032Z,9.30
2017-10-28T15:45:50.540Z,9.20
2017-10-28T15:48:18.018Z,9.30
2017-10-28T15:50:45.533Z,9.20
2017-10-28T15:53:13.018Z,9.20
2017-10-28T15:55:40.497Z,9.20
2017-10-28T15:58:07.987Z,9.30
2017-10-28T16:00:35.465Z,9.30
2017-10-28T16:03:03.697Z,9.20
2017-10-28T16:05:31.191Z,9.20
2017-10-28T16:07:58.662Z,9.20
2017-10-28T16:10:26.905Z,9.20
2017-10-28T16:12:54.381Z,9.20
2017-10-28T16:15:21.885Z,9.30
2017-10-28T16:17:49.359Z,9.20
2017-10-28T16:20:16.837Z,9.20
2017-10-28T16:22:45.308Z,9.10
2017-10-28T16:25:12.783Z,9.10
2017-10-28T16:27:40.263Z,9.10
2017-10-28T16:30:08.530Z,9.10
2017-10-28T16:32:35.998Z,9.10
2017-10-28T16:35:04.288Z,9.00
2017-10-28T16:37:32.532Z,9.10
2017-10-28T16:40:00.005Z,9.10
2017-10-28T16:42:28.254Z,9.10
2017-10-28T16:44:55.732Z,9.00
2017-10-28T16:47:23.204Z,9.10
2017-10-28T16:49:51.460Z,9.10
2017-10-28T16:52:19.690Z,9.00
2017-10-28T16:54:47.180Z,9.00
2017-10-28T16:57:14.662Z,9.00
2017-10-28T16:59:42.931Z,8.90
2017-10-28T17:02:10.410Z,8.90
2017-10-28T17:04:38.661Z,8.90
2017-10-28T17:07:06.136Z,8.90
2017-10-28T17:09:34.377Z,9.00
2017-10-28T17:12:01.853Z,9.00
2017-10-28T17:14:29.322Z,8.90
2017-10-28T17:16:57.568Z,9.00
2017-10-28T17:19:25.041Z,9.00
2017-10-28T17:21:52.517Z,9.00
2017-10-28T17:24:20.758Z,8.90
2017-10-28T17:26:48.249Z,8.80
2017-10-28T17:29:16.498Z,9.00
2017-10-28T17:31:43.972Z,9.00
2017-10-28T17:34:11.446Z,8.90
2017-10-28T17:36:39.703Z,8.90
2017-10-28T17:39:07.185Z,8.90
2017-10-28T17:41:35.449Z,9.00
2017-10-28T17:44:03.685Z,9.00
2017-10-28T17:46:31.172Z,9.00
2017-10-28T17:48:58.645Z,8.90
2017-10-28T17:51:26.907Z,8.90
2017-10-28T17:53:54.373Z,8.90
2017-10-28T17:56:22.615Z,8.90
2017-10-28T17:58:50.096Z,8.90
2017-10-28T18:01:18.348Z,9.10
2017-10-28T18:03:45.825Z,9.10
2017-10-28T18:06:13.316Z,9.20
2017-10-28T18:08:40.799Z,9.10
2017-10-28T18:11:08.278Z,9.20
2017-10-28T18:13:35.743Z,9.10
2017-10-28T18:16:03.232Z,9.10
2017-10-28T18:18:31.466Z,9.10
2017-10-28T18:20:58.960Z,9.10
2017-10-28T18:23:27.220Z,9.20
2017-10-28T18:25:55.689Z,9.20
2017-10-28T18:28:23.168Z,9.20
2017-10-28T18:30:50.663Z,9.20
2017-10-28T18:33:18.129Z,9.10
2017-10-28T18:35:45.607Z,9.20
2017-10-28T18:38:13.093Z,9.20
2017-10-28T18:40:40.565Z,9.10
2017-10-28T18:43:08.829Z,9.10
2017-10-28T18:45:36.295Z,9.10
2017-10-28T18:48:04.547Z,9.10
2017-10-28T18:50:32.820Z,9.10
2017-10-28T18:53:00.312Z,9.10
2017-10-28T18:55:28.536Z,9.00
2017-10-28T18:57:56.019Z,9.00
2017-10-28T19:00:23.486Z,9.10
2017-10-28T19:02:50.957Z,9.20
2017-10-28T19:05:19.188Z,9.10
2017-10-28T19:07:46.668Z,9.10
2017-10-28T19:10:14.142Z,9.20
2017-10-28T19:12:42.418Z,9.10
2017-10-28T19:15:10.664Z,9.10
2017-10-28T19:17:38.149Z,9.10
2017-10-28T19:20:05.625Z,9.20
2017-10-28T19:22:33.882Z,9.10
2017-10-28T19:25:01.370Z,9.10
2017-10-28T19:27:28.856Z,9.10
2017-10-28T19:29:57.000Z,9.10
2017-10-28T19:32:25.287Z,9.20
2017-10-28T19:34:52.748Z,9.30
2017-10-28T19:37:20.225Z,9.20
2017-10-28T19:39:47.688Z,9.20
2017-10-28T19:42:15.163Z,9.20
2017-10-28T19:44:42.624Z,9.30
2017-10-28T19:47:10.096Z,9.30
2017-10-28T19:49:37.573Z,9.20
2017-10-28T19:52:06.720Z,9.10
2017-10-28T19:54:34.250Z,9.10
2017-10-28T19:57:01.726Z,9.10
2017-10-28T19:59:29.192Z,9.20
2017-10-28T20:01:56.681Z,9.20
2017-10-28T20:04:24.164Z,9.00
2017-10-28T20:06:51.633Z,9.10
2017-10-28T20:09:19.109Z,9.00
2017-10-28T20:11:46.619Z,9.00
2017-10-28T20:14:14.885Z,9.00
2017-10-28T20:16:43.120Z,9.00
2017-10-28T20:19:10.626Z,9.00
2017-10-28T20:21:44.652Z,9.10
2017-10-28T20:24:12.887Z,9.10
2017-10-28T20:26:41.090Z,9.10
2017-10-28T20:29:09.329Z,9.10
2017-10-28T20:31:36.815Z,9.10
2017-10-28T20:34:05.061Z,9.10
2017-10-28T20:36:32.540Z,9.10
2017-10-28T20:39:00.811Z,9.10
2017-10-28T20:41:28.276Z,9.10
2017-10-28T20:43:55.773Z,9.10
2017-10-28T20:46:23.237Z,9.00
2017-10-28T20:48:50.731Z,9.10
2017-10-28T20:51:18.213Z,9.10
2017-10-28T20:53:47.221Z,9.00
2017-10-28T20:56:15.460Z,9.00
2017-10-28T20:58:43.056Z,9.10
2017-10-28T21:01:11.290Z,8.90
2017-10-28T21:03:38.758Z,8.90
2017-10-28T21:06:06.244Z,9.00
2017-10-28T21:08:34.483Z,8.90
2017-10-28T21:11:01.965Z,8.90
2017-10-28T21:13:29.428Z,9.00
2017-10-28T21:15:56.937Z,9.10
2017-10-28T21:18:24.407Z,9.10
2017-10-28T21:20:51.903Z,8.90
2017-10-28T21:23:20.145Z,9.00
2017-10-28T21:25:47.633Z,9.00
2017-10-28T21:28:15.105Z,9.00
2017-10-28T21:30:43.357Z,9.00
2017-10-28T21:33:10.836Z,9.00
2017-10-28T21:35:39.073Z,9.10
2017-10-28T21:38:06.559Z,9.00
2017-10-28T21:40:34.803Z,9.00
2017-10-28T21:43:02.279Z,9.00
2017-10-28T21:45:29.760Z,9.10
2017-10-28T21:47:58.017Z,9.10
2017-10-28T21:50:25.497Z,9.10
2017-10-28T21:52:53.739Z,9.00
2017-10-28T21:55:21.229Z,8.90
2017-10-28T21:57:49.485Z,9.10
2017-10-28T22:00:16.952Z,9.10
2017-10-28T22:02:44.445Z,9.00
2017-10-28T22:05:11.938Z,8.90
2017-10-28T22:07:39.417Z,8.90
2017-10-28T22:10:06.896Z,8.90
2017-10-28T22:12:35.163Z,8.80
2017-10-28T22:15:02.639Z,8.80
2017-10-28T22:17:30.885Z,8.80
2017-10-28T22:19:59.882Z,8.90
2017-10-28T22:22:27.370Z,8.80
2017-10-28T22:24:54.845Z,8.90
2017-10-28T22:27:22.418Z,8.90
2017-10-28T22:29:49.887Z,8.90
2017-10-28T22:32:17.364Z,8.80
2017-10-28T22:34:44.852Z,8.80
2017-10-28T22:37:13.104Z,8.80
2017-10-28T22:39:41.349Z,8.70
2017-10-28T22:42:08.824Z,8.70
2017-10-28T22:44:36.305Z,8.60
2017-10-28T22:47:04.548Z,8.70
2017-10-28T22:49:32.032Z,8.70
2017-10-28T22:51:59.538Z,8.70
2017-10-28T22:54:27.008Z,8.70
2017-10-28T22:56:54.485Z,8.80
2017-10-28T22:59:21.960Z,8.90
2017-10-28T23:01:49.423Z,8.80
2017-10-28T23:04:16.908Z,8.80
2017-10-28T23:06:44.395Z,8.80
2017-10-28T23:09:11.888Z,8.80
2017-10-28T23:11:39.383Z,8.70
2017-10-28T23:14:06.868Z,8.70
2017-10-28T23:16:34.341Z,8.80
2017-10-28T23:19:01.833Z,8.80
2017-10-28T23:21:29.310Z,8.70
2017-10-28T23:24:00.097Z,8.70
2017-10-28T23:26:27.615Z,8.70
2017-10-28T23:28:55.140Z,8.70
2017-10-28T23:31:22.648Z,8.80
2017-10-28T23:33:50.164Z,8.80
2017-10-28T23:36:17.636Z,8.80
2017-10-28T23:38:45.869Z,8.60
2017-10-28T23:41:13.353Z,8.60
2017-10-28T23:43:40.852Z,8.60
2017-10-28T23:46:08.321Z,8.60
2017-10-28T23:48:35.805Z,8.70
2017-10-28T23:51:03.287Z,8.80
2017-10-28T23:53:31.512Z,8.80
2017-10-28T23:55:58.989Z,8.80
2017-10-28T23:58:26.460Z,8.80
